Time;durP1;ratioP1;P1;durP2;ratioP2;P2;SDS_P1;SDS_P2;PMS_P1;PMS_P2;Temp;Humidity;BMP_temperature;BMP_pressure;BME280_temperature;BME280_humidity;BME280_pressure;Samples;Min_cycle;Max_cycle;Signal;HPM_P1;HPM_P2
2021/01/26 00:00:17;;;;;;;41.55;24.95;;;;;;;0.68;88.05;99462.50;5074371;28;20326;-54
2021/01/26 00:02:43;;;;;;;35.33;22.20;;;;;;;0.58;88.61;99450.47;5074358;28;20024;-53
2021/01/26 00:05:10;;;;;;;36.20;22.23;;;;;;;0.71;87.49;99439.59;5065983;28;20376;-53
2021/01/26 00:07:36;;;;;;;35.65;21.50;;;;;;;0.63;86.92;99396.19;5080170;28;20035;-54
2021/01/26 00:10:04;;;;;;;34.42;21.13;;;;;;;0.55;88.08;99443.63;5083828;28;20208;-54
2021/01/26 00:12:30;;;;;;;34.83;22.15;;;;;;;0.44;88.03;99430.75;5068778;28;20033;-54
2021/01/26 00:14:55;;;;;;;33.55;20.25;;;;;;;0.60;88.06;99453.88;5078959;28;20035;-54
2021/01/26 00:17:21;;;;;;;33.55;19.98;;;;;;;0.47;88.81;99440.09;5071713;28;20025;-54
2021/01/26 00:19:47;;;;;;;33.70;20.77;;;;;;;0.55;88.27;99441.06;5082549;28;20359;-54
2021/01/26 00:22:12;;;;;;;35.15;21.10;;;;;;;0.61;88.13;99433.50;5062548;28;20139;-54
2021/01/26 00:24:38;;;;;;;31.17;18.20;;;;;;;0.28;88.56;99416.91;5061697;28;20116;-54
2021/01/26 00:27:04;;;;;;;32.83;20.77;;;;;;;0.33;89.71;99429.72;5062682;28;20222;-53
2021/01/26 00:29:29;;;;;;;34.40;22.23;;;;;;;0.54;88.75;99420.69;5078778;28;20040;-53
2021/01/26 00:31:56;;;;;;;33.90;19.90;;;;;;;0.40;89.55;99428.97;5083726;28;20032;-54
2021/01/26 00:34:22;;;;;;;34.30;21.20;;;;;;;0.64;88.76;99435.25;5086107;28;20024;-54
2021/01/26 00:36:47;;;;;;;33.17;19.42;;;;;;;0.57;88.65;99434.34;5078092;28;20294;-53
2021/01/26 00:39:13;;;;;;;26.27;14.63;;;;;;;0.26;88.67;99435.56;5090198;28;20040;-53
2021/01/26 00:41:39;;;;;;;28.38;18.30;;;;;;;0.26;89.16;99435.56;5083356;28;20029;-53
2021/01/26 00:44:04;;;;;;;32.10;19.70;;;;;;;0.38;88.92;99417.06;5075782;28;20024;-54
2021/01/26 00:46:30;;;;;;;30.08;19.02;;;;;;;0.23;89.30;99420.19;5080000;28;20063;-53
2021/01/26 00:48:56;;;;;;;29.50;18.67;;;;;;;0.24;89.33;99414.28;5085810;28;20198;-53
2021/01/26 00:51:21;;;;;;;29.40;18.35;;;;;;;0.05;90.08;99419.06;5085796;28;20028;-53
2021/01/26 00:53:47;;;;;;;30.17;19.38;;;;;;;0.13;90.26;99429.41;5085723;28;20104;-53
2021/01/26 00:56:12;;;;;;;34.60;20.27;;;;;;;0.14;89.67;99419.25;5085299;28;20033;-53
2021/01/26 00:58:38;;;;;;;33.10;20.52;;;;;;;0.22;89.31;99414.25;5089608;28;20024;-54
2021/01/26 01:01:05;;;;;;;32.72;20.58;;;;;;;0.26;89.41;99423.66;5067574;28;20031;-54
2021/01/26 01:03:31;;;;;;;34.30;21.50;;;;;;;0.21;89.66;99419.34;5066178;28;20092;-54
2021/01/26 01:05:57;;;;;;;29.33;20.48;;;;;;;0.22;89.29;99400.69;5066853;28;20052;-54
2021/01/26 01:08:23;;;;;;;31.13;19.42;;;;;;;0.24;88.90;99414.28;5079866;28;20100;-54
2021/01/26 01:10:51;;;;;;;34.78;22.08;;;;;;;0.33;88.72;99410.19;5066010;28;20021;-54
2021/01/26 01:13:17;;;;;;;36.90;23.35;;;;;;;0.20;89.31;99398.13;5073794;28;20068;-54
2021/01/26 01:15:43;;;;;;;38.13;23.00;;;;;;;0.41;89.17;99407.75;5073128;28;20039;-54
2021/01/26 01:18:09;;;;;;;35.00;22.40;;;;;;;0.14;90.20;99393.78;5088512;28;20036;-54
2021/01/26 01:20:36;;;;;;;39.13;23.90;;;;;;;0.27;89.22;99405.00;5071004;28;20225;-53
2021/01/26 01:23:02;;;;;;;39.35;24.92;;;;;;;0.28;89.11;99391.44;5065751;28;20318;-54
2021/01/26 01:25:29;;;;;;;38.88;23.85;;;;;;;0.22;89.65;99382.84;5073777;28;20025;-53
2021/01/26 01:27:55;;;;;;;39.88;24.75;;;;;;;0.29;89.13;99382.13;5076532;28;20035;-53
2021/01/26 01:30:24;;;;;;;42.05;26.35;;;;;;;0.09;89.48;99336.84;5077150;28;20092;-53
2021/01/26 01:32:50;;;;;;;39.42;25.40;;;;;;;0.46;89.35;99380.66;5068818;28;20092;-53
2021/01/26 01:35:17;;;;;;;34.50;21.83;;;;;;;0.28;88.74;99381.25;5065312;28;20328;-53
2021/01/26 01:37:42;;;;;;;33.15;20.80;;;;;;;0.37;89.08;99380.56;5082692;28;20021;-53
2021/01/26 01:40:12;;;;;;;39.97;26.35;;;;;;;0.36;89.20;99391.56;5085541;28;20020;-54
2021/01/26 01:42:38;;;;;;;30.40;19.23;;;;;;;0.13;89.11;99376.78;5077172;28;20036;-54
2021/01/26 01:45:06;;;;;;;47.40;28.20;;;;;;;0.36;89.25;99380.50;5067371;28;20388;-54
2021/01/26 01:47:41;;;;;;;39.75;24.83;;;;;;;0.39;89.35;99399.25;5076978;28;20057;-53
2021/01/26 01:50:13;;;;;;;34.85;20.63;;;;;;;-0.20;89.57;99316.88;5085864;28;20029;-54
2021/01/26 01:52:40;;;;;;;39.88;23.10;;;;;;;0.10;89.93;99383.50;5084612;28;20227;-53
2021/01/26 01:55:11;;;;;;;41.15;25.85;;;;;;;-0.04;90.08;99379.06;5082113;28;20036;-53
2021/01/26 01:57:43;;;;;;;37.95;20.52;;;;;;;-0.28;90.01;99310.81;5066467;28;20033;-53
2021/01/26 02:00:12;;;;;;;46.22;27.90;;;;;;;-0.17;89.85;99290.63;5082574;28;20028;-54
2021/01/26 02:02:42;;;;;;;49.60;29.42;;;;;;;0.26;89.74;99359.16;5071650;28;20032;-54
2021/01/26 02:05:08;;;;;;;45.53;27.80;;;;;;;0.43;89.01;99367.88;5073711;28;20103;-54
2021/01/26 02:07:34;;;;;;;51.55;28.00;;;;;;;0.40;88.62;99360.22;5079181;28;20024;-54
2021/01/26 02:10:00;;;;;;;50.67;28.50;;;;;;;0.39;89.27;99360.19;5085452;28;20062;-54
2021/01/26 02:12:27;;;;;;;52.83;30.90;;;;;;;0.44;88.51;99361.09;5070031;28;20024;-54
2021/01/26 02:14:57;;;;;;;52.03;27.30;;;;;;;-0.07;89.22;99305.22;5075698;28;20048;-54
2021/01/26 02:17:26;;;;;;;55.03;28.00;;;;;;;0.37;89.29;99369.47;5072899;28;20025;-54
2021/01/26 02:19:58;;;;;;;58.17;32.10;;;;;;;0.29;89.17;99362.59;5076957;28;20091;-54
2021/01/26 02:22:51;;;;;;;59.78;31.50;;;;;;;0.27;89.73;99366.81;5071545;28;20039;-54
2021/01/26 02:25:38;;;;;;;72.10;35.90;;;;;;;0.43;89.91;99351.72;5072829;28;20255;-53
2021/01/26 02:28:45;;;;;;;69.75;35.05;;;;;;;0.51;89.40;99339.97;5068676;28;20025;-54
2021/01/26 02:31:46;;;;;;;72.93;36.47;;;;;;;0.60;88.85;99345.19;5077901;28;20040;-53
2021/01/26 02:34:33;;;;;;;81.80;38.85;;;;;;;0.67;88.88;99335.91;5067641;28;20036;-53
2021/01/26 02:37:17;;;;;;;79.68;37.13;;;;;;;0.27;89.77;99337.94;5066353;28;20028;-53
2021/01/26 02:39:54;;;;;;;85.40;39.08;;;;;;;0.21;90.63;99325.13;5082613;28;20099;-53
2021/01/26 02:42:41;;;;;;;72.80;37.08;;;;;;;0.27;90.50;99320.09;5075709;28;20036;-53
2021/01/26 02:45:15;;;;;;;70.93;32.45;;;;;;;0.09;91.58;99331.75;5075507;28;20044;-53
2021/01/26 02:47:43;;;;;;;77.35;36.83;;;;;;;0.20;91.08;99328.50;5076745;28;20048;-53
2021/01/26 02:50:36;;;;;;;76.70;37.80;;;;;;;0.30;90.35;99327.78;5073430;28;20100;-53
2021/01/26 02:53:20;;;;;;;;;;;;;;;0.38;90.69;99330.44;5072516;28;20033;-54
2021/01/26 02:55:57;;;;;;;79.68;38.33;;;;;;;0.42;90.33;99317.78;5071955;28;19958;-54
2021/01/26 02:58:33;;;;;;;72.72;34.45;;;;;;;0.28;90.87;99315.03;5077641;28;20028;-53
2021/01/26 03:01:01;;;;;;;75.15;36.13;;;;;;;0.36;91.07;99310.06;5083035;28;20029;-54
2021/01/26 03:03:34;;;;;;;76.28;36.88;;;;;;;0.19;91.16;99312.38;5075280;28;20079;-55
2021/01/26 03:06:09;;;;;;;82.65;38.17;;;;;;;0.07;92.04;99315.59;5083112;28;20153;-54
2021/01/26 03:08:50;;;;;;;85.65;39.67;;;;;;;0.38;91.79;99320.25;5083865;28;20049;-53
2021/01/26 03:11:39;;;;;;;82.05;34.97;;;;;;;0.11;92.05;99307.16;5075334;28;20050;-54
2021/01/26 03:14:29;;;;;;;69.68;31.13;;;;;;;0.05;92.34;99281.63;5072836;28;20048;-53
2021/01/26 03:17:04;;;;;;;83.45;37.42;;;;;;;0.21;91.83;99297.13;5064242;28;20032;-54
2021/01/26 03:19:33;;;;;;;80.28;38.38;;;;;;;-0.06;91.83;99222.06;5078180;28;20234;-53
2021/01/26 03:22:02;;;;;;;82.35;37.85;;;;;;;0.41;91.42;99292.28;5072673;28;20214;-54
2021/01/26 03:24:37;;;;;;;85.78;37.63;;;;;;;0.07;91.13;99249.41;5077769;28;20103;-54
2021/01/26 03:27:08;;;;;;;80.10;37.22;;;;;;;0.33;91.81;99292.19;5073384;28;20033;-54
2021/01/26 03:29:38;;;;;;;87.13;38.95;;;;;;;0.31;92.05;99283.66;5082483;28;20043;-54
2021/01/26 03:32:11;;;;;;;83.47;36.35;;;;;;;-0.11;91.83;99201.66;5068468;28;20040;-54
2021/01/26 03:34:37;;;;;;;83.68;38.63;;;;;;;0.13;92.43;99259.66;5064936;28;20032;-53
2021/01/26 03:37:05;;;;;;;84.97;39.47;;;;;;;0.26;92.31;99273.41;5080827;28;20317;-53
2021/01/26 03:39:31;;;;;;;80.45;37.38;;;;;;;0.34;92.06;99258.22;5077194;28;20040;-53
2021/01/26 03:41:58;;;;;;;68.35;31.60;;;;;;;0.07;92.33;99263.81;5064144;28;20253;-53
2021/01/26 03:44:24;;;;;;;87.93;40.55;;;;;;;0.24;92.05;99276.78;5069620;28;20076;-53
2021/01/26 03:47:12;;;;;;;69.30;34.25;;;;;;;0.32;91.91;99280.28;5071248;28;20024;-54
2021/01/26 03:49:59;;;;;;;76.28;34.10;;;;;;;0.28;92.02;99288.72;5090538;28;20040;-54
2021/01/26 03:52:52;;;;;;;89.13;38.30;;;;;;;0.50;91.29;99283.06;5075901;28;20024;-53
2021/01/26 03:55:42;;;;;;;75.82;36.38;;;;;;;0.21;91.02;99292.88;5074250;28;20028;-54
2021/01/26 03:58:12;;;;;;;76.57;35.15;;;;;;;0.26;92.25;99275.97;5076140;28;20070;-54
2021/01/26 04:00:55;;;;;;;69.53;34.05;;;;;;;0.30;91.74;99261.56;5087212;28;20062;-54
2021/01/26 04:03:39;;;;;;;66.18;30.20;;;;;;;0.24;92.08;99261.50;5082402;28;20028;-55
2021/01/26 04:06:35;;;;;;;71.65;34.97;;;;;;;0.16;91.88;99226.59;5071587;28;20056;-55
2021/01/26 04:09:11;;;;;;;77.80;33.58;;;;;;;0.17;91.92;99227.44;5087639;28;20036;-53
2021/01/26 04:12:03;;;;;;;58.40;26.25;;;;;;;0.19;92.17;99258.06;5074291;28;20028;-54
2021/01/26 04:14:33;;;;;;;78.13;34.88;;;;;;;-0.07;92.51;99179.63;5070417;28;20047;-53
2021/01/26 04:17:10;;;;;;;64.97;34.15;;;;;;;0.10;91.99;99182.38;5064018;28;20033;-54
2021/01/26 04:19:47;;;;;;;66.15;32.80;;;;;;;0.42;91.35;99228.63;5089643;28;20060;-55
2021/01/26 04:22:14;;;;;;;73.70;35.35;;;;;;;0.43;91.73;99255.81;5071038;28;20218;-55
2021/01/26 04:24:40;;;;;;;72.80;34.33;;;;;;;0.65;91.04;99254.38;5070514;28;20062;-54
2021/01/26 04:27:18;;;;;;;73.40;35.78;;;;;;;0.77;90.41;99252.78;5070713;28;20032;-54
2021/01/26 04:29:44;;;;;;;66.80;32.70;;;;;;;0.33;91.41;99248.91;5084471;28;20309;-54
2021/01/26 04:32:10;;;;;;;65.75;30.88;;;;;;;0.33;91.75;99252.28;5073229;28;20183;-54
2021/01/26 04:34:36;;;;;;;60.33;31.73;;;;;;;0.28;91.85;99238.63;5067281;28;20528;-54
2021/01/26 04:37:01;;;;;;;58.58;26.80;;;;;;;0.26;92.56;99244.56;5079007;28;20025;-54
2021/01/26 04:39:27;;;;;;;65.88;30.42;;;;;;;0.28;92.48;99240.34;5088544;28;20032;-54
2021/01/26 04:42:03;;;;;;;71.18;31.50;;;;;;;0.38;91.83;99246.41;5079918;28;20025;-55
2021/01/26 04:44:52;;;;;;;61.40;30.08;;;;;;;0.30;92.14;99225.91;5081439;28;20032;-54
2021/01/26 04:47:33;;;;;;;65.72;31.30;;;;;;;0.39;91.94;99231.13;5081554;28;20029;-54
2021/01/26 04:50:14;;;;;;;70.43;34.60;;;;;;;0.49;92.09;99237.22;5077506;28;20029;-53
2021/01/26 04:52:58;;;;;;;68.75;34.28;;;;;;;0.47;91.86;99231.22;5069215;28;20280;-53
2021/01/26 04:55:30;;;;;;;71.65;34.70;;;;;;;0.52;91.28;99229.59;5072797;28;20086;-53
2021/01/26 04:58:27;;;;;;;74.22;35.75;;;;;;;0.70;90.87;99231.50;5079183;28;20035;-53
2021/01/26 05:01:11;;;;;;;73.10;36.20;;;;;;;0.51;91.23;99231.28;5078354;28;20030;-53
2021/01/26 05:03:44;;;;;;;78.75;33.40;;;;;;;0.45;91.68;99220.16;5062097;28;20036;-52
2021/01/26 05:06:19;;;;;;;72.20;34.72;;;;;;;0.48;91.49;99215.09;5062116;28;20052;-53
2021/01/26 05:08:51;;;;;;;72.72;33.38;;;;;;;0.37;92.21;99222.63;5075404;28;20043;-54
2021/01/26 05:11:19;;;;;;;;;;;;;;;0.44;91.48;99224.41;5070469;28;20091;-53
2021/01/26 05:14:00;;;;;;;65.65;30.58;;;;;;;0.36;92.16;99231.09;5077883;28;19916;-54
2021/01/26 05:16:37;;;;;;;78.35;39.25;;;;;;;0.41;91.44;99193.78;5070342;28;20025;-54
2021/01/26 05:19:32;;;;;;;70.93;32.60;;;;;;;0.42;91.88;99217.59;5086815;28;20039;-52
2021/01/26 05:22:07;;;;;;;75.47;37.90;;;;;;;0.65;91.52;99202.56;5062970;28;20044;-53
2021/01/26 05:24:57;;;;;;;59.25;27.83;;;;;;;0.47;91.50;99198.09;5070935;28;20222;-52
2021/01/26 05:27:23;;;;;;;70.95;36.15;;;;;;;0.58;91.19;99195.69;5072818;28;20142;-54
2021/01/26 05:29:49;;;;;;;67.70;33.45;;;;;;;0.55;91.29;99185.47;5085562;28;20106;-54
2021/01/26 05:32:14;;;;;;;65.65;35.38;;;;;;;0.61;91.12;99194.00;5066242;28;20052;-53
2021/01/26 05:34:41;;;;;;;74.57;35.17;;;;;;;0.71;90.65;99194.97;5080153;28;20036;-54
2021/01/26 05:37:10;;;;;;;47.70;26.00;;;;;;;0.06;91.29;99127.19;5076155;28;20079;-53
2021/01/26 05:40:07;;;;;;;68.25;34.47;;;;;;;0.61;91.35;99188.06;5087789;28;20036;-53
2021/01/26 05:42:34;;;;;;;64.57;33.63;;;;;;;0.69;91.08;99202.59;5081968;28;20083;-53
2021/01/26 05:45:11;;;;;;;65.95;33.95;;;;;;;0.78;91.14;99196.75;5066931;28;20021;-54
2021/01/26 05:47:39;;;;;;;63.92;32.38;;;;;;;0.82;89.91;99205.28;5065174;28;20063;-53
2021/01/26 05:50:24;;;;;;;47.40;21.98;;;;;;;0.16;90.43;99122.22;5088411;28;20225;-52
2021/01/26 05:52:50;;;;;;;60.70;32.00;;;;;;;0.61;90.70;99178.72;5076339;28;20028;-56
2021/01/26 05:55:23;;;;;;;59.65;33.38;;;;;;;0.31;90.60;99138.50;5076275;28;20331;-53
2021/01/26 05:57:50;;;;;;;57.13;32.22;;;;;;;0.57;90.85;99196.53;5068325;28;20033;-54
2021/01/26 06:00:17;;;;;;;54.85;28.90;;;;;;;0.63;90.43;99183.88;5084490;28;20091;-53
2021/01/26 06:02:44;;;;;;;60.95;30.30;;;;;;;0.59;90.77;99187.22;5077649;28;20151;-53
2021/01/26 06:05:16;;;;;;;62.65;31.63;;;;;;;0.22;91.07;99131.63;5079387;28;20068;-53
2021/01/26 06:07:43;;;;;;;56.83;30.55;;;;;;;0.60;91.17;99179.59;5077645;28;20242;-55
2021/01/26 06:10:21;;;;;;;59.30;29.67;;;;;;;0.57;91.00;99171.91;5080101;28;20028;-52
2021/01/26 06:12:55;;;;;;;64.00;31.35;;;;;;;0.62;91.17;99172.81;5079035;28;20147;-53
2021/01/26 06:15:24;;;;;;;51.70;28.05;;;;;;;0.61;90.72;99177.88;5078714;28;20024;-53
2021/01/26 06:17:50;;;;;;;59.13;32.72;;;;;;;0.59;90.81;99179.56;5080766;28;20044;-53
2021/01/26 06:20:20;;;;;;;60.97;33.78;;;;;;;0.78;90.68;99178.91;5079075;28;20202;-53
2021/01/26 06:22:47;;;;;;;60.42;33.35;;;;;;;0.39;90.35;99113.13;5079835;28;20034;-53
2021/01/26 06:25:23;;;;;;;64.22;33.72;;;;;;;0.76;90.54;99167.00;5076399;28;20379;-54
2021/01/26 06:28:13;;;;;;;42.30;21.70;;;;;;;0.60;90.56;99156.66;5080879;28;20092;-53
2021/01/26 06:30:52;;;;;;;56.88;31.50;;;;;;;0.63;90.43;99146.50;5081596;28;20075;-53
2021/01/26 06:33:36;;;;;;;55.60;30.67;;;;;;;0.82;90.24;99149.22;5082407;28;20025;-54
2021/01/26 06:36:26;;;;;;;66.25;33.85;;;;;;;0.66;90.97;99150.78;5073496;28;20056;-53
2021/01/26 06:39:10;;;;;;;61.60;34.33;;;;;;;0.84;90.10;99148.41;5072349;28;20028;-53
2021/01/26 06:42:20;;;;;;;56.92;30.73;;;;;;;0.68;90.00;99151.63;5075177;28;20037;-54
2021/01/26 06:45:18;;;;;;;53.65;28.35;;;;;;;0.69;89.90;99145.69;5068555;28;20222;-54
2021/01/26 06:48:18;;;;;;;51.78;27.25;;;;;;;0.17;90.76;99083.22;4985019;28;20041;-54
2021/01/26 06:51:05;;;;;;;60.15;34.15;;;;;;;0.78;90.24;99155.97;5067160;28;20325;-54
2021/01/26 06:54:13;;;;;;;57.53;32.28;;;;;;;0.71;90.32;99151.66;5056745;28;20055;-53
2021/01/26 06:57:09;;;;;;;60.20;33.53;;;;;;;0.78;89.69;99158.50;5053760;28;20041;-53
2021/01/26 07:00:02;;;;;;;60.50;35.40;;;;;;;0.98;88.88;99151.06;5063706;28;20025;-54
2021/01/26 07:02:42;;;;;;;58.17;33.83;;;;;;;0.98;89.55;99142.56;5060959;28;20029;-54
2021/01/26 07:05:15;;;;;;;52.97;31.63;;;;;;;0.50;89.08;99083.53;5061276;28;20053;-53
2021/01/26 07:08:13;;;;;;;55.22;33.28;;;;;;;1.00;88.31;99148.53;5062621;28;20060;-53
2021/01/26 07:10:44;;;;;;;55.60;33.03;;;;;;;1.06;88.15;99147.72;5063536;28;20070;-54
2021/01/26 07:13:28;;;;;;;52.13;31.70;;;;;;;0.96;88.15;99141.69;5062341;28;20063;-54
2021/01/26 07:16:09;;;;;;;50.53;32.30;;;;;;;1.02;87.98;99134.09;5061468;28;20378;-54
2021/01/26 07:18:56;;;;;;;42.95;27.10;;;;;;;0.85;87.39;99122.03;5063991;28;20271;-53
2021/01/26 07:21:47;;;;;;;49.10;30.83;;;;;;;0.79;87.16;99063.38;5055725;28;20056;-53
2021/01/26 07:24:32;;;;;;;53.00;29.95;;;;;;;1.25;86.46;99139.34;5062803;28;20055;-53
2021/01/26 07:27:27;;;;;;;47.47;28.95;;;;;;;1.30;86.11;99111.34;5062592;28;20041;-54
2021/01/26 07:30:14;;;;;;;40.45;27.08;;;;;;;1.26;85.92;99107.91;5065653;28;20029;-54
2021/01/26 07:32:58;;;;;;;44.33;29.05;;;;;;;1.10;86.25;99109.50;5058066;28;20032;-54
2021/01/26 07:35:50;;;;;;;42.88;27.52;;;;;;;1.23;85.41;99102.81;5055665;28;20131;-53
2021/01/26 07:38:24;;;;;;;41.78;26.98;;;;;;;1.46;85.16;99107.19;5053647;28;20029;-52
2021/01/26 07:41:02;;;;;;;37.67;25.58;;;;;;;1.35;85.02;99099.47;5064500;28;20045;-53
2021/01/26 07:43:43;;;;;;;36.95;26.48;;;;;;;1.09;84.69;99049.16;5062551;28;20048;-53
2021/01/26 07:46:20;;;;;;;;;;;;;;;1.45;84.70;99091.03;5062971;28;20262;-53
2021/01/26 07:49:14;;;;;;;36.10;24.08;;;;;;;1.42;84.76;99085.91;5064710;28;19904;-53
2021/01/26 07:51:42;;;;;;;37.13;25.58;;;;;;;1.51;83.52;99100.41;5057593;28;20041;-53
2021/01/26 07:54:27;;;;;;;33.70;25.25;;;;;;;1.18;83.38;99026.28;5062245;28;20318;-53
2021/01/26 07:56:54;;;;;;;31.23;22.98;;;;;;;1.03;83.60;99032.13;5062284;28;20120;-53
2021/01/26 07:59:31;;;;;;;35.33;23.73;;;;;;;1.53;83.48;99074.06;5064793;28;20025;-52
2021/01/26 08:02:00;;;;;;;33.47;22.77;;;;;;;1.40;82.99;99022.97;5062493;28;20039;-52
2021/01/26 08:04:36;;;;;;;32.08;17.85;;;;;;;1.32;83.63;99079.88;5052702;28;20099;-52
2021/01/26 08:07:02;;;;;;;31.77;22.65;;;;;;;1.54;83.00;99088.53;5062090;28;20059;-52
2021/01/26 08:09:37;;;;;;;33.25;22.05;;;;;;;1.49;83.08;99080.00;5062369;28;20376;-52
2021/01/26 08:12:14;;;;;;;28.85;20.13;;;;;;;1.54;83.08;99085.13;5062241;28;20096;-53
2021/01/26 08:14:53;;;;;;;32.05;20.65;;;;;;;1.45;83.18;99062.13;5062162;28;20314;-52
2021/01/26 08:17:33;;;;;;;28.35;20.00;;;;;;;1.20;82.47;98991.41;5054865;28;20029;-53
2021/01/26 08:20:08;;;;;;;32.55;19.73;;;;;;;1.23;82.24;98997.38;5063936;28;20249;-53
2021/01/26 08:22:36;;;;;;;25.35;17.65;;;;;;;1.49;82.84;99077.44;5062252;28;20226;-54
2021/01/26 08:25:04;;;;;;;30.13;20.70;;;;;;;1.59;82.75;99054.53;5062188;28;20256;-53
2021/01/26 08:27:39;;;;;;;26.80;20.17;;;;;;;1.63;81.83;99061.34;5062215;28;20029;-53
2021/01/26 08:30:10;;;;;;;28.67;20.13;;;;;;;1.80;81.66;99061.44;5063457;28;20100;-52
2021/01/26 08:32:36;;;;;;;31.50;20.15;;;;;;;1.90;81.00;99048.69;5062246;28;20108;-53
2021/01/26 08:35:05;;;;;;;33.28;24.38;;;;;;;1.50;80.88;98989.84;5062158;28;20067;-53
2021/01/26 08:37:41;;;;;;;27.23;19.58;;;;;;;1.90;80.68;99046.13;5062118;28;20035;-53
2021/01/26 08:40:08;;;;;;;26.38;19.10;;;;;;;1.78;80.75;99056.31;5063227;28;20031;-53
2021/01/26 08:42:43;;;;;;;23.50;18.13;;;;;;;1.87;80.78;99038.47;5061904;28;20029;-54
2021/01/26 08:45:16;;;;;;;24.27;18.30;;;;;;;1.38;80.83;98970.25;5062113;28;20261;-53
2021/01/26 08:47:50;;;;;;;24.88;17.70;;;;;;;1.83;80.83;99018.88;5062020;28;20017;-54
2021/01/26 08:50:30;;;;;;;22.52;16.83;;;;;;;1.86;80.28;99029.09;5054373;28;20312;-53
2021/01/26 08:53:32;;;;;;;26.20;16.92;;;;;;;1.57;79.72;98944.81;5065698;28;20032;-53
2021/01/26 08:56:02;;;;;;;28.73;18.52;;;;;;;1.91;79.55;98957.66;5065761;28;20025;-53
2021/01/26 08:58:45;;;;;;;25.30;17.85;;;;;;;1.92;79.55;98935.50;5065603;28;20032;-53
2021/01/26 09:01:23;;;;;;;26.70;15.95;;;;;;;2.20;78.81;98984.91;5065955;28;20071;-53
2021/01/26 09:03:50;;;;;;;27.30;16.77;;;;;;;2.17;78.82;98985.75;5065806;28;20210;-53
2021/01/26 09:06:43;;;;;;;25.05;16.60;;;;;;;2.32;78.06;98984.06;5057713;28;20298;-53
2021/01/26 09:09:11;;;;;;;24.00;15.77;;;;;;;2.52;78.44;98987.50;5069730;28;20078;-52
2021/01/26 09:11:52;;;;;;;26.23;15.48;;;;;;;2.07;78.19;98938.09;5073762;28;20043;-53
2021/01/26 09:14:36;;;;;;;19.23;14.75;;;;;;;2.56;77.36;99001.94;5063920;28;20037;-53
2021/01/26 09:17:10;;;;;;;18.30;12.60;;;;;;;2.18;77.71;99023.22;5070978;28;20080;-52
2021/01/26 09:19:49;;;;;;;21.50;14.68;;;;;;;2.32;77.99;99023.22;5065624;28;20108;-53
2021/01/26 09:22:19;;;;;;;18.67;11.95;;;;;;;2.28;77.39;99013.00;5061733;28;20041;-53
2021/01/26 09:24:46;;;;;;;18.58;12.88;;;;;;;2.42;77.55;99016.44;5076587;28;20032;-53
2021/01/26 09:27:26;;;;;;;19.83;12.45;;;;;;;2.40;77.12;99006.22;5067011;28;20032;-54
2021/01/26 09:30:07;;;;;;;19.25;12.50;;;;;;;1.84;77.67;98935.47;5063983;28;20036;-53
2021/01/26 09:32:36;;;;;;;20.63;12.82;;;;;;;2.16;78.00;98993.41;5065506;28;20083;-52
2021/01/26 09:35:29;;;;;;;19.23;12.40;;;;;;;2.21;77.66;99002.78;5065056;28;20032;-53
2021/01/26 09:38:11;;;;;;;19.83;12.82;;;;;;;1.97;77.76;98942.31;5068819;28;20214;-52
2021/01/26 09:40:41;;;;;;;20.02;13.35;;;;;;;2.51;76.95;98993.44;5064923;28;20056;-53
2021/01/26 09:43:20;;;;;;;19.65;13.55;;;;;;;2.32;77.52;99000.22;5065123;28;20051;-53
2021/01/26 09:45:53;;;;;;;19.27;14.02;;;;;;;2.47;77.35;98983.22;5065501;28;20028;-53
2021/01/26 09:48:28;;;;;;;16.58;10.80;;;;;;;2.23;77.29;98992.56;5067225;28;20037;-53
2021/01/26 09:51:03;;;;;;;15.73;9.68;;;;;;;1.94;77.29;98936.34;5072600;28;20336;-53
2021/01/26 09:53:28;;;;;;;17.15;12.27;;;;;;;2.31;77.27;98987.47;5064606;28;20044;-53
2021/01/26 09:55:54;;;;;;;17.27;12.57;;;;;;;2.30;77.42;98983.22;5064208;28;20033;-53
2021/01/26 09:58:21;;;;;;;19.77;13.52;;;;;;;2.15;77.42;98954.28;5064350;28;20036;-54
2021/01/26 10:00:48;;;;;;;16.88;11.80;;;;;;;2.24;77.14;98972.13;5064508;28;20045;-52
2021/01/26 10:03:19;;;;;;;19.30;13.43;;;;;;;2.20;77.68;98972.97;5063597;28;20314;-54
2021/01/26 10:05:45;;;;;;;18.88;12.48;;;;;;;2.13;77.50;98983.22;5062258;28;20041;-53
2021/01/26 10:08:12;;;;;;;20.95;13.77;;;;;;;2.28;78.12;98973.00;5064288;28;20104;-52
2021/01/26 10:10:40;;;;;;;18.02;12.23;;;;;;;2.31;77.31;98970.44;5064307;28;20048;-52
2021/01/26 10:13:27;;;;;;;17.73;12.80;;;;;;;2.19;77.38;98968.72;5063897;28;20102;-54
2021/01/26 10:15:53;;;;;;;17.67;12.25;;;;;;;2.09;77.92;98982.34;5064019;28;20113;-53
2021/01/26 10:18:24;;;;;;;18.02;12.88;;;;;;;2.09;78.08;98974.69;5064404;28;20326;-53
2021/01/26 10:20:53;;;;;;;13.40;7.63;;;;;;;2.01;77.90;98974.69;5071561;28;20412;-52
2021/01/26 10:23:28;;;;;;;18.65;12.80;;;;;;;1.81;78.10;98915.94;5064460;28;20033;-52
2021/01/26 10:26:07;;;;;;;17.60;12.52;;;;;;;1.97;77.58;98901.47;5064105;28;20025;-53
2021/01/26 10:28:33;;;;;;;19.70;13.65;;;;;;;2.29;77.42;98944.03;5064045;28;20094;-53
2021/01/26 10:30:59;;;;;;;19.20;12.90;;;;;;;2.27;77.46;98915.09;5064288;28;20032;-53
2021/01/26 10:33:40;;;;;;;19.23;12.70;;;;;;;2.27;77.50;98894.66;5064124;28;20037;-53
2021/01/26 10:36:28;;;;;;;18.23;12.20;;;;;;;2.37;77.41;98895.50;5063519;28;20024;-54
2021/01/26 10:38:55;;;;;;;16.98;12.18;;;;;;;2.39;77.41;98909.13;5063596;28;20028;-53
2021/01/26 10:41:27;;;;;;;16.77;12.02;;;;;;;2.19;78.41;98889.53;5070397;28;20100;-53
2021/01/26 10:44:11;;;;;;;18.80;13.00;;;;;;;1.97;78.16;98840.19;5063881;28;20112;-53
2021/01/26 10:46:40;;;;;;;17.15;10.38;;;;;;;2.15;78.02;98859.78;5063889;28;20306;-53
2021/01/26 10:49:26;;;;;;;16.33;11.02;;;;;;;2.05;78.41;98846.16;5063992;28;20036;-53
2021/01/26 10:51:52;;;;;;;17.15;11.65;;;;;;;2.29;78.45;98853.78;5066721;28;20316;-52
2021/01/26 10:54:18;;;;;;;20.45;12.15;;;;;;;2.20;78.38;98860.59;5063773;28;20025;-53
2021/01/26 10:56:43;;;;;;;16.05;11.13;;;;;;;2.13;78.67;98856.34;5063558;28;20033;-52
2021/01/26 10:59:09;;;;;;;18.27;10.60;;;;;;;2.17;78.85;98855.50;5064289;28;20103;-52
2021/01/26 11:01:40;;;;;;;14.77;10.45;;;;;;;2.13;79.09;98851.25;5068476;28;20044;-54
2021/01/26 11:04:06;;;;;;;19.25;11.98;;;;;;;2.16;79.54;98855.50;5063013;28;20076;-53
2021/01/26 11:06:31;;;;;;;17.10;11.57;;;;;;;2.11;79.45;98850.41;5063726;28;20036;-53
2021/01/26 11:08:57;;;;;;;15.00;10.82;;;;;;;2.17;79.67;98842.72;5063258;28;20025;-52
2021/01/26 11:11:25;;;;;;;15.13;10.25;;;;;;;1.95;80.54;98854.66;5069416;28;20096;-53
2021/01/26 11:13:52;;;;;;;19.60;13.38;;;;;;;2.06;81.64;98850.38;5063285;28;20029;-54
2021/01/26 11:16:18;;;;;;;16.48;11.88;;;;;;;1.95;81.71;98831.66;5063137;28;20051;-54
2021/01/26 11:18:44;;;;;;;20.05;12.73;;;;;;;2.03;82.02;98829.97;5063119;28;20138;-53
2021/01/26 11:21:10;;;;;;;13.95;10.32;;;;;;;1.98;82.15;98834.25;5069205;28;20055;-53
2021/01/26 11:23:37;;;;;;;18.73;13.07;;;;;;;2.02;82.56;98835.06;5063343;28;20123;-54
2021/01/26 11:26:04;;;;;;;16.05;11.68;;;;;;;1.97;82.81;98835.09;5062953;28;20098;-54
2021/01/26 11:28:29;;;;;;;20.05;13.02;;;;;;;1.95;83.01;98824.00;5062925;28;20024;-54
2021/01/26 11:30:55;;;;;;;16.80;12.13;;;;;;;1.93;83.64;98828.28;5068491;28;20099;-54
2021/01/26 11:33:21;;;;;;;17.88;13.23;;;;;;;2.02;83.61;98830.84;5062916;28;20025;-54
2021/01/26 11:35:46;;;;;;;17.35;12.45;;;;;;;2.11;83.59;98835.09;5061545;28;20317;-54
2021/01/26 11:38:13;;;;;;;18.55;13.13;;;;;;;2.14;83.06;98824.84;5062805;28;20029;-53
2021/01/26 11:40:38;;;;;;;19.88;12.80;;;;;;;2.02;83.49;98830.84;5068258;28;20025;-53
2021/01/26 11:43:04;;;;;;;17.33;11.85;;;;;;;1.82;83.05;98805.28;5062712;28;20275;-53
2021/01/26 11:45:35;;;;;;;17.33;12.70;;;;;;;1.98;83.83;98862.34;5062501;28;20036;-53
2021/01/26 11:48:03;;;;;;;17.15;12.60;;;;;;;2.13;83.76;98879.34;5062282;28;20032;-53
2021/01/26 11:50:30;;;;;;;17.10;11.77;;;;;;;1.75;83.42;98812.97;5064674;28;20044;-53
2021/01/26 11:52:56;;;;;;;17.50;11.48;;;;;;;1.95;83.88;98848.69;5059979;28;20028;-52
2021/01/26 11:55:26;;;;;;;15.57;12.32;;;;;;;2.03;83.84;98844.44;5062377;28;20306;-54
2021/01/26 11:57:52;;;;;;;16.27;12.65;;;;;;;1.98;84.15;98843.59;5044159;28;20031;-52